createdAt,value
2017-08-08T00:00:58.477Z,1016.65
2017-08-08T00:02:08.004Z,1016.64
2017-08-08T00:03:17.212Z,1016.64
2017-08-08T00:04:26.429Z,1016.6
2017-08-08T00:05:35.635Z,1016.6
2017-08-08T00:06:45.170Z,1016.6
2017-08-08T00:07:55.343Z,1016.56
2017-08-08T00:09:04.552Z,1016.54
2017-08-08T00:10:14.091Z,1016.51
2017-08-08T00:11:23.300Z,1016.46
2017-08-08T00:12:32.828Z,1016.51
2017-08-08T00:13:42.409Z,1016.49
2017-08-08T00:14:51.939Z,1016.47
2017-08-08T00:16:01.469Z,1016.44
2017-08-08T00:17:10.676Z,1016.37
2017-08-08T00:18:19.881Z,1016.4
2017-08-08T00:19:30.160Z,1016.4
2017-08-08T00:20:39.370Z,1016.4
2017-08-08T00:21:48.900Z,1016.36
2017-08-08T00:22:58.107Z,1016.38
2017-08-08T00:24:07.317Z,1016.38
2017-08-08T00:25:16.685Z,1016.35
2017-08-08T00:26:26.869Z,1016.33
2017-08-08T00:27:36.076Z,1016.31
2017-08-08T00:28:45.607Z,1016.29
2017-08-08T00:29:55.134Z,1016.28
2017-08-08T00:31:04.716Z,1016.22
2017-08-08T00:32:13.921Z,1016.23
2017-08-08T00:33:23.775Z,1016.21
2017-08-08T00:34:33.001Z,1016.17
2017-08-08T00:35:42.548Z,1016.2
2017-08-08T00:36:51.859Z,1016.2
2017-08-08T00:38:01.388Z,1016.21
2017-08-08T00:39:10.593Z,1016.23
2017-08-08T00:40:20.120Z,1016.21
2017-08-08T00:41:29.977Z,1016.22
2017-08-08T00:42:39.283Z,1016.18
2017-08-08T00:43:49.144Z,1016.17
2017-08-08T00:44:59.001Z,1016.17
2017-08-08T00:46:07.886Z,1016.21
2017-08-08T00:47:17.091Z,1016.1
2017-08-08T00:48:26.995Z,1016.11
2017-08-08T00:49:36.528Z,1016.04
2017-08-08T00:50:46.058Z,1016.03
2017-08-08T00:51:55.590Z,1015.96
2017-08-08T00:53:05.454Z,1015.92
2017-08-08T00:54:15.349Z,1015.86
2017-08-08T00:55:24.556Z,1015.87
2017-08-08T00:56:33.767Z,1015.9
2017-08-08T00:57:42.974Z,1015.86
2017-08-08T00:58:52.836Z,1015.88
2017-08-08T01:00:02.525Z,1015.85
2017-08-08T01:01:12.710Z,1015.89
2017-08-08T01:02:22.565Z,1015.83
2017-08-08T01:03:31.445Z,1015.86
2017-08-08T01:04:40.652Z,1015.83
2017-08-08T01:05:49.885Z,1015.78
2017-08-08T01:06:59.097Z,1015.81
2017-08-08T01:08:09.279Z,1015.84
2017-08-08T01:09:18.177Z,1015.77
2017-08-08T01:10:27.715Z,1015.77
2017-08-08T01:11:37.021Z,1015.77
2017-08-08T01:12:46.231Z,1015.71
2017-08-08T01:13:55.456Z,1015.7
2017-08-08T01:15:04.993Z,1015.69
2017-08-08T01:16:13.884Z,1015.68
2017-08-08T01:17:23.422Z,1015.63
2017-08-08T01:18:32.633Z,1015.66
2017-08-08T01:19:41.850Z,1015.63
2017-08-08T01:20:51.104Z,1015.66
2017-08-08T01:22:00.631Z,1015.66
2017-08-08T01:23:10.323Z,1015.6
2017-08-08T01:24:19.556Z,1015.62
2017-08-08T01:25:29.086Z,1015.58
2017-08-08T01:26:38.617Z,1015.57
2017-08-08T01:27:48.163Z,1015.56
2017-08-08T01:28:57.941Z,1015.52
2017-08-08T01:30:07.797Z,1015.5
2017-08-08T01:31:17.336Z,1015.47
2017-08-08T01:32:26.867Z,1015.43
2017-08-08T01:33:37.048Z,1015.43
2017-08-08T01:34:46.404Z,1015.44
2017-08-08T01:35:55.618Z,1015.39
2017-08-08T01:37:04.823Z,1015.44
2017-08-08T01:38:14.354Z,1015.42
2017-08-08T01:39:23.560Z,1015.4
2017-08-08T01:40:33.766Z,1015.39
2017-08-08T01:41:43.296Z,1015.39
2017-08-08T01:42:52.833Z,1015.33
2017-08-08T01:44:03.010Z,1015.36
2017-08-08T01:45:12.218Z,1015.31
2017-08-08T01:46:21.523Z,1015.33
2017-08-08T01:47:30.729Z,1015.34
2017-08-08T01:48:39.936Z,1015.31
2017-08-08T01:49:49.149Z,1015.26
2017-08-08T01:50:58.357Z,1015.26
2017-08-08T01:52:07.714Z,1015.24
2017-08-08T01:53:16.600Z,1015.22
2017-08-08T01:54:25.805Z,1015.18
2017-08-08T01:55:35.694Z,1015.18
2017-08-08T01:56:44.904Z,1015.2
2017-08-08T01:57:54.260Z,1015.18
2017-08-08T01:59:03.467Z,1015.21
2017-08-08T02:00:12.997Z,1015.15
2017-08-08T02:01:22.527Z,1015.11
2017-08-08T02:02:32.060Z,1015.09
2017-08-08T02:03:41.363Z,1015.06
2017-08-08T02:04:50.895Z,1015.05
2017-08-08T02:06:00.102Z,1015.02
2017-08-08T02:07:09.635Z,1015.01
2017-08-08T02:08:19.170Z,1015.01
2017-08-08T02:09:28.526Z,1015.02
2017-08-08T02:10:37.737Z,1014.98
2017-08-08T02:11:47.269Z,1014.99
2017-08-08T02:12:56.490Z,1014.97
2017-08-08T02:14:06.024Z,1015.02
2017-08-08T02:15:15.803Z,1014.94
2017-08-08T02:16:25.009Z,1014.98
2017-08-08T02:17:33.891Z,1014.97
2017-08-08T02:18:43.095Z,1014.93
2017-08-08T02:19:52.623Z,1014.91
2017-08-08T02:21:02.523Z,1014.89
2017-08-08T02:22:12.060Z,1014.88
2017-08-08T02:23:21.270Z,1014.85
2017-08-08T02:24:30.473Z,1014.87
2017-08-08T02:25:39.676Z,1014.86
2017-08-08T02:26:48.857Z,1014.86
2017-08-08T02:27:58.064Z,1014.86
2017-08-08T02:29:07.592Z,1014.84
2017-08-08T02:30:17.122Z,1014.82
2017-08-08T02:31:26.329Z,1014.81
2017-08-08T02:32:35.914Z,1014.77
2017-08-08T02:33:44.807Z,1014.71
2017-08-08T02:34:54.014Z,1014.73
2017-08-08T02:36:03.227Z,1014.75
2017-08-08T02:37:13.095Z,1014.71
2017-08-08T02:38:22.826Z,1014.76
2017-08-08T02:39:32.034Z,1014.67
2017-08-08T02:40:41.244Z,1014.7
2017-08-08T02:41:51.093Z,1014.65
2017-08-08T02:43:00.633Z,1014.69
2017-08-08T02:44:10.313Z,1014.68
2017-08-08T02:45:19.206Z,1014.69
2017-08-08T02:46:28.789Z,1014.67
2017-08-08T02:47:38.336Z,1014.66
2017-08-08T02:48:48.521Z,1014.61
2017-08-08T02:49:58.532Z,1014.63
2017-08-08T02:51:08.068Z,1014.64
2017-08-08T02:52:17.601Z,1014.61
2017-08-08T02:53:26.807Z,1014.63
2017-08-08T02:54:35.698Z,1014.62
2017-08-08T02:55:45.536Z,1014.6
2017-08-08T02:56:54.743Z,1014.55
2017-08-08T02:58:04.594Z,1014.51
2017-08-08T02:59:13.804Z,1014.5
2017-08-08T03:00:23.331Z,1014.48
2017-08-08T03:01:32.323Z,1014.5
2017-08-08T03:02:41.849Z,1014.48
2017-08-08T03:03:51.699Z,1014.46
2017-08-08T03:05:00.905Z,1014.4
2017-08-08T03:06:11.081Z,1014.35
2017-08-08T03:07:21.031Z,1014.34
2017-08-08T03:08:30.560Z,1014.32
2017-08-08T03:09:39.763Z,1014.29
2017-08-08T03:10:48.965Z,1014.32
2017-08-08T03:11:57.853Z,1014.32
2017-08-08T03:13:07.258Z,1014.27
2017-08-08T03:14:16.795Z,1014.28
2017-08-08T03:15:26.325Z,1014.25
2017-08-08T03:16:35.542Z,1014.24
2017-08-08T03:17:44.749Z,1014.29
2017-08-08T03:18:54.431Z,1014.34
2017-08-08T03:20:03.638Z,1014.33
2017-08-08T03:21:12.852Z,1014.32
2017-08-08T03:22:22.073Z,1014.31
2017-08-08T03:23:31.280Z,1014.28
2017-08-08T03:24:40.611Z,1014.3
2017-08-08T03:25:49.496Z,1014.32
2017-08-08T03:26:58.700Z,1014.29
2017-08-08T03:28:08.230Z,1014.29
2017-08-08T03:29:17.469Z,1014.27
2017-08-08T03:30:26.870Z,1014.26
2017-08-08T03:31:36.410Z,1014.21
2017-08-08T03:32:45.945Z,1014.19
2017-08-08T03:33:55.806Z,1014.19
2017-08-08T03:35:05.336Z,1014.2
2017-08-08T03:36:14.601Z,1014.19
2017-08-08T03:37:24.454Z,1014.16
2017-08-08T03:38:33.658Z,1014.18
2017-08-08T03:39:42.863Z,1014.16
2017-08-08T03:40:51.745Z,1014.14
2017-08-08T03:42:01.650Z,1014.16
2017-08-08T03:43:11.539Z,1014.15
2017-08-08T03:44:20.743Z,1014.14
2017-08-08T03:45:30.598Z,1014.11
2017-08-08T03:46:39.481Z,1014.08
2017-08-08T03:47:49.069Z,1014.11
2017-08-08T03:48:57.966Z,1014.07
2017-08-08T03:50:08.145Z,1014.05
2017-08-08T03:51:17.681Z,1014.08
2017-08-08T03:52:26.569Z,1014.04
2017-08-08T03:53:36.257Z,1014.05
2017-08-08T03:54:45.790Z,1014.05
2017-08-08T03:55:55.641Z,1014.06
2017-08-08T03:57:04.849Z,1014.05
2017-08-08T03:58:14.385Z,1014.05
2017-08-08T03:59:24.311Z,1014.01
2017-08-08T04:00:33.840Z,1013.99
2017-08-08T04:01:43.369Z,1014.01
2017-08-08T04:02:52.256Z,1013.97
2017-08-08T04:04:01.800Z,1013.93
2017-08-08T04:05:11.951Z,1013.88
2017-08-08T04:06:21.157Z,1013.92
2017-08-08T04:07:30.038Z,1013.84
2017-08-08T04:08:39.568Z,1013.74
2017-08-08T04:09:48.774Z,1013.7
2017-08-08T04:10:58.135Z,1013.69
2017-08-08T04:12:08.315Z,1013.62
2017-08-08T04:13:17.844Z,1013.65
2017-08-08T04:14:27.053Z,1013.66
2017-08-08T04:15:36.260Z,1013.67
2017-08-08T04:16:46.260Z,1013.68
2017-08-08T04:17:55.471Z,1013.71
2017-08-08T04:19:04.358Z,1013.64
2017-08-08T04:20:13.897Z,1013.61
2017-08-08T04:21:24.080Z,1013.56
2017-08-08T04:22:33.023Z,1013.5
2017-08-08T04:23:41.910Z,1013.45
2017-08-08T04:24:51.775Z,1013.46
2017-08-08T04:26:00.982Z,1013.47
2017-08-08T04:27:10.184Z,1013.46
2017-08-08T04:28:19.219Z,1013.48
2017-08-08T04:29:28.752Z,1013.5
2017-08-08T04:30:38.618Z,1013.49
2017-08-08T04:31:47.824Z,1013.49
2017-08-08T04:32:57.355Z,1013.47
2017-08-08T04:34:07.230Z,1013.49
2017-08-08T04:35:16.118Z,1013.48
2017-08-08T04:36:25.327Z,1013.47
2017-08-08T04:37:34.862Z,1013.51
2017-08-08T04:38:44.713Z,1013.46
2017-08-08T04:39:53.748Z,1013.48
2017-08-08T04:41:03.296Z,1013.54
2017-08-08T04:42:12.828Z,1013.52
2017-08-08T04:43:22.693Z,1013.54
2017-08-08T04:44:31.578Z,1013.56
2017-08-08T04:45:40.795Z,1013.57
2017-08-08T04:46:50.323Z,1013.56
2017-08-08T04:47:59.528Z,1013.55
2017-08-08T04:49:09.060Z,1013.53
2017-08-08T04:50:18.594Z,1013.52
2017-08-08T04:51:28.598Z,1013.5
2017-08-08T04:52:38.133Z,1013.49
2017-08-08T04:53:47.668Z,1013.49
2017-08-08T04:54:56.874Z,1013.43
2017-08-08T04:56:07.379Z,1013.43
2017-08-08T04:57:16.742Z,1013.37
2017-08-08T04:58:26.271Z,1013.37
2017-08-08T04:59:35.154Z,1013.37
2017-08-08T05:00:44.361Z,1013.3
2017-08-08T05:01:54.549Z,1013.33
2017-08-08T05:03:03.808Z,1013.3
2017-08-08T05:04:13.345Z,1013.32
2017-08-08T05:05:22.928Z,1013.3
2017-08-08T05:06:32.461Z,1013.31
2017-08-08T05:07:41.700Z,1013.32
2017-08-08T05:08:51.194Z,1013.33
2017-08-08T05:10:00.399Z,1013.35
2017-08-08T05:11:09.286Z,1013.29
2017-08-08T05:12:18.939Z,1013.28
2017-08-08T05:13:28.469Z,1013.25
2017-08-08T05:14:38.065Z,1013.31
2017-08-08T05:15:47.932Z,1013.29
2017-08-08T05:16:57.142Z,1013.29
2017-08-08T05:18:06.685Z,1013.24
2017-08-08T05:19:16.539Z,1013.27
2017-08-08T05:20:26.410Z,1013.28
2017-08-08T05:21:35.616Z,1013.27
2017-08-08T05:22:45.154Z,1013.28
2017-08-08T05:23:54.039Z,1013.27
2017-08-08T05:25:03.244Z,1013.27
2017-08-08T05:26:12.784Z,1013.25
2017-08-08T05:27:21.989Z,1013.24
2017-08-08T05:28:31.022Z,1013.23
2017-08-08T05:29:40.229Z,1013.25
2017-08-08T05:30:49.765Z,1013.2
2017-08-08T05:31:59.621Z,1013.19
2017-08-08T05:33:09.150Z,1013.2
2017-08-08T05:34:18.285Z,1013.18
2017-08-08T05:35:27.490Z,1013.21
2017-08-08T05:36:36.703Z,1013.19
2017-08-08T05:37:45.594Z,1013.18
2017-08-08T05:38:55.122Z,1013.09
2017-08-08T05:40:04.428Z,1013.13
2017-08-08T05:41:13.959Z,1013.14
2017-08-08T05:42:23.490Z,1013.14
2017-08-08T05:43:32.710Z,1013.14
2017-08-08T05:44:42.561Z,1013.16
2017-08-08T05:45:52.515Z,1013.16
2017-08-08T05:47:01.726Z,1013.14
2017-08-08T05:48:11.256Z,1013.17
2017-08-08T05:49:21.109Z,1013.1
2017-08-08T05:50:30.312Z,1013.1
2017-08-08T05:51:39.991Z,1013.05
2017-08-08T05:52:50.166Z,1013.01
2017-08-08T05:54:00.017Z,1013.06
2017-08-08T05:55:09.549Z,1013
2017-08-08T05:56:19.402Z,1012.97
2017-08-08T05:57:28.438Z,1012.94
2017-08-08T05:58:37.971Z,1012.94
2017-08-08T05:59:47.189Z,1012.96
2017-08-08T06:00:57.362Z,1012.98
2017-08-08T06:02:07.225Z,1012.96
2017-08-08T06:03:17.559Z,1012.92
2017-08-08T06:04:26.443Z,1012.92
2017-08-08T06:05:36.299Z,1012.91
2017-08-08T06:06:45.507Z,1012.88
2017-08-08T06:07:54.715Z,1012.84
2017-08-08T06:09:04.683Z,1012.8
2017-08-08T06:10:14.218Z,1012.81
2017-08-08T06:11:24.395Z,1012.79
2017-08-08T06:12:33.603Z,1012.79
2017-08-08T06:13:43.452Z,1012.77
2017-08-08T06:14:52.810Z,1012.7
2017-08-08T06:16:02.664Z,1012.82
2017-08-08T06:17:12.194Z,1012.78
2017-08-08T06:18:21.731Z,1012.77
2017-08-08T06:19:31.281Z,1012.79
2017-08-08T06:20:40.535Z,1012.8
2017-08-08T06:21:50.062Z,1012.75
2017-08-08T06:22:58.985Z,1012.74
2017-08-08T06:24:07.866Z,1012.69
2017-08-08T06:25:17.724Z,1012.71
2017-08-08T06:26:27.031Z,1012.68
2017-08-08T06:27:36.891Z,1012.66
2017-08-08T06:28:46.107Z,1012.67
2017-08-08T06:29:55.316Z,1012.66
2017-08-08T06:31:04.551Z,1012.65
2017-08-08T06:32:14.136Z,1012.7
2017-08-08T06:33:23.347Z,1012.71
2017-08-08T06:34:32.556Z,1012.71
2017-08-08T06:35:42.412Z,1012.72
2017-08-08T06:36:51.938Z,1012.7
2017-08-08T06:38:01.519Z,1012.74
2017-08-08T06:39:11.050Z,1012.72
2017-08-08T06:40:20.581Z,1012.69
2017-08-08T06:41:29.791Z,1012.67
2017-08-08T06:42:39.646Z,1012.7
2017-08-08T06:43:49.553Z,1012.74
2017-08-08T06:44:58.437Z,1012.66
2017-08-08T06:46:07.686Z,1012.67
2017-08-08T06:47:16.894Z,1012.64
2017-08-08T06:48:25.830Z,1012.61
2017-08-08T06:49:35.192Z,1012.58
2017-08-08T06:50:44.073Z,1012.51
2017-08-08T06:51:53.287Z,1012.49
2017-08-08T06:53:02.818Z,1012.51
2017-08-08T06:54:11.703Z,1012.5
2017-08-08T06:55:21.107Z,1012.43
2017-08-08T06:56:30.316Z,1012.42
2017-08-08T06:57:39.850Z,1012.38
2017-08-08T06:58:49.380Z,1012.41
2017-08-08T06:59:58.583Z,1012.42
2017-08-08T07:01:07.618Z,1012.4
2017-08-08T07:02:17.476Z,1012.37
2017-08-08T07:03:27.006Z,1012.33
2017-08-08T07:04:36.552Z,1012.37
2017-08-08T07:05:46.086Z,1012.35
2017-08-08T07:06:56.095Z,1012.36
2017-08-08T07:08:05.302Z,1012.35
2017-08-08T07:09:15.154Z,1012.39
2017-08-08T07:10:24.385Z,1012.38
2017-08-08T07:11:33.616Z,1012.43
2017-08-08T07:12:42.978Z,1012.45
2017-08-08T07:13:52.194Z,1012.43
2017-08-08T07:15:01.735Z,1012.42
2017-08-08T07:16:10.627Z,1012.42
2017-08-08T07:17:20.162Z,1012.48
2017-08-08T07:18:29.623Z,1012.46
2017-08-08T07:19:39.156Z,1012.42
2017-08-08T07:20:48.374Z,1012.39
2017-08-08T07:21:58.231Z,1012.38
2017-08-08T07:23:08.089Z,1012.41
2017-08-08T07:24:17.827Z,1012.42
2017-08-08T07:25:27.357Z,1012.41
2017-08-08T07:26:37.209Z,1012.46
2017-08-08T07:27:46.740Z,1012.43
2017-08-08T07:28:56.274Z,1012.37
2017-08-08T07:30:05.684Z,1012.31
2017-08-08T07:31:15.542Z,1012.31
2017-08-08T07:32:24.753Z,1012.26
2017-08-08T07:33:34.285Z,1012.21
2017-08-08T07:34:43.494Z,1012.23
2017-08-08T07:35:52.906Z,1012.28
2017-08-08T07:37:02.439Z,1012.3
2017-08-08T07:38:11.646Z,1012.31
2017-08-08T07:39:21.502Z,1012.35
2017-08-08T07:40:30.734Z,1012.33
2017-08-08T07:41:41.005Z,1012.33
2017-08-08T07:42:49.900Z,1012.3
2017-08-08T07:43:59.763Z,1012.33
2017-08-08T07:45:08.973Z,1012.33
2017-08-08T07:46:18.186Z,1012.34
2017-08-08T07:47:27.540Z,1012.33
2017-08-08T07:48:36.755Z,1012.28
2017-08-08T07:49:45.964Z,1012.28
2017-08-08T07:50:54.847Z,1012.29
2017-08-08T07:52:04.383Z,1012.31
2017-08-08T07:53:13.756Z,1012.29
2017-08-08T07:54:23.289Z,1012.29
2017-08-08T07:55:32.496Z,1012.27
2017-08-08T07:56:41.709Z,1012.22
2017-08-08T07:57:51.242Z,1012.26
2017-08-08T07:59:00.774Z,1012.28
2017-08-08T08:00:09.983Z,1012.27
2017-08-08T08:01:18.868Z,1012.29
2017-08-08T08:02:28.398Z,1012.33
2017-08-08T08:03:38.261Z,1012.27
2017-08-08T08:04:47.624Z,1012.31
2017-08-08T08:05:56.841Z,1012.29
2017-08-08T08:07:06.052Z,1012.26
2017-08-08T08:08:15.593Z,1012.33
2017-08-08T08:09:25.131Z,1012.31
2017-08-08T08:10:34.116Z,1012.3
2017-08-08T08:11:43.329Z,1012.33
2017-08-08T08:12:52.867Z,1012.33
2017-08-08T08:14:02.403Z,1012.32
2017-08-08T08:15:11.940Z,1012.39
2017-08-08T08:16:20.923Z,1012.34
2017-08-08T08:17:30.130Z,1012.32
2017-08-08T08:18:39.990Z,1012.31
2017-08-08T08:19:49.200Z,1012.3
2017-08-08T08:20:58.780Z,1012.31
2017-08-08T08:22:09.106Z,1012.27
2017-08-08T08:23:18.640Z,1012.31
2017-08-08T08:24:27.849Z,1012.3
2017-08-08T08:25:36.745Z,1012.33
2017-08-08T08:26:46.278Z,1012.29
2017-08-08T08:27:55.690Z,1012.32
2017-08-08T08:29:05.225Z,1012.3
2017-08-08T08:30:14.455Z,1012.31
2017-08-08T08:31:23.675Z,1012.28
2017-08-08T08:32:33.207Z,1012.24
2017-08-08T08:33:42.570Z,1012.27
2017-08-08T08:34:51.783Z,1012.25
2017-08-08T08:36:00.992Z,1012.21
2017-08-08T08:37:10.855Z,1012.21
2017-08-08T08:38:19.747Z,1012.13
2017-08-08T08:39:28.737Z,1012.13
2017-08-08T08:40:38.599Z,1012.09
2017-08-08T08:41:48.140Z,1012.06
2017-08-08T08:42:57.356Z,1012.03
2017-08-08T08:44:06.890Z,1012
2017-08-08T08:45:16.575Z,1011.97
2017-08-08T08:46:26.435Z,1011.93
2017-08-08T08:47:35.976Z,1011.9
2017-08-08T08:48:46.156Z,1011.86
2017-08-08T08:49:55.691Z,1011.83
2017-08-08T08:51:05.003Z,1011.85
2017-08-08T08:52:13.894Z,1011.84
2017-08-08T08:53:22.784Z,1011.83
2017-08-08T08:54:31.994Z,1011.84
2017-08-08T08:55:41.207Z,1011.81
2017-08-08T08:56:50.292Z,1011.82
2017-08-08T08:57:59.826Z,1011.79
2017-08-08T08:59:09.640Z,1011.79
2017-08-08T09:00:18.530Z,1011.77
2017-08-08T09:01:28.395Z,1011.8
2017-08-08T09:02:37.660Z,1011.77
2017-08-08T09:03:46.871Z,1011.77
2017-08-08T09:04:56.418Z,1011.74
2017-08-08T09:06:05.308Z,1011.74
2017-08-08T09:07:14.194Z,1011.78
2017-08-08T09:08:23.728Z,1011.73
2017-08-08T09:09:32.938Z,1011.73
2017-08-08T09:10:42.484Z,1011.73
2017-08-08T09:11:51.693Z,1011.7
2017-08-08T09:13:00.912Z,1011.67
2017-08-08T09:14:10.598Z,1011.63
2017-08-08T09:15:20.485Z,1011.54
2017-08-08T09:16:29.696Z,1011.54
2017-08-08T09:17:39.230Z,1011.52
2017-08-08T09:18:48.437Z,1011.4
2017-08-08T09:19:58.026Z,1011.42
2017-08-08T09:21:07.113Z,1011.36
2017-08-08T09:22:16.972Z,1011.34
2017-08-08T09:23:26.184Z,1011.34
2017-08-08T09:24:35.719Z,1011.33
2017-08-08T09:25:44.855Z,1011.33
2017-08-08T09:26:53.745Z,1011.3
2017-08-08T09:28:03.286Z,1011.28
2017-08-08T09:29:12.498Z,1011.28
2017-08-08T09:30:22.362Z,1011.31
2017-08-08T09:31:31.721Z,1011.24
2017-08-08T09:32:40.936Z,1011.23
2017-08-08T09:33:50.472Z,1011.19
2017-08-08T09:34:59.691Z,1011.15
2017-08-08T09:36:09.230Z,1011.15
2017-08-08T09:37:18.813Z,1011.07
2017-08-08T09:38:28.030Z,1011.06
2017-08-08T09:39:37.241Z,1011.07
2017-08-08T09:40:46.779Z,1011.05
2017-08-08T09:41:55.990Z,1011.03
2017-08-08T09:43:05.304Z,1011
2017-08-08T09:44:14.512Z,1011.01
2017-08-08T09:45:24.053Z,1010.99
2017-08-08T09:46:33.265Z,1011.02
2017-08-08T09:47:42.802Z,1011.03
2017-08-08T09:48:51.998Z,1011.01
2017-08-08T09:50:01.206Z,1010.98
2017-08-08T09:51:10.748Z,1010.93
2017-08-08T09:52:19.959Z,1010.96
2017-08-08T09:53:29.175Z,1010.96
2017-08-08T09:54:38.399Z,1010.93
2017-08-08T09:55:47.614Z,1010.9
2017-08-08T09:56:56.829Z,1010.85
2017-08-08T09:58:06.043Z,1010.88
2017-08-08T09:59:15.597Z,1010.87
2017-08-08T10:00:25.250Z,1010.87
2017-08-08T10:01:34.788Z,1010.83
2017-08-08T10:02:44.333Z,1010.8
2017-08-08T10:03:53.224Z,1010.81
2017-08-08T10:05:02.436Z,1010.76
2017-08-08T10:06:12.171Z,1010.74
2017-08-08T10:07:21.388Z,1010.69
2017-08-08T10:08:30.605Z,1010.71
2017-08-08T10:09:39.498Z,1010.71
2017-08-08T10:10:48.386Z,1010.7
2017-08-08T10:11:57.328Z,1010.66
2017-08-08T10:13:06.863Z,1010.68
2017-08-08T10:14:16.405Z,1010.64
2017-08-08T10:15:26.266Z,1010.63
2017-08-08T10:16:35.483Z,1010.58
2017-08-08T10:17:45.443Z,1010.57
2017-08-08T10:18:54.986Z,1010.53
2017-08-08T10:20:04.523Z,1010.57
2017-08-08T10:21:13.729Z,1010.58
2017-08-08T10:22:22.944Z,1010.55
2017-08-08T10:23:32.361Z,1010.56
2017-08-08T10:24:42.543Z,1010.55
2017-08-08T10:25:52.078Z,1010.53
2017-08-08T10:27:01.289Z,1010.51
2017-08-08T10:28:10.842Z,1010.52
2017-08-08T10:29:20.105Z,1010.51
2017-08-08T10:30:29.366Z,1010.54
2017-08-08T10:31:38.582Z,1010.55
2017-08-08T10:32:48.446Z,1010.54
2017-08-08T10:33:57.980Z,1010.55
2017-08-08T10:35:07.942Z,1010.59
2017-08-08T10:36:16.844Z,1010.57
2017-08-08T10:37:26.067Z,1010.58
2017-08-08T10:38:35.279Z,1010.57
2017-08-08T10:39:44.493Z,1010.6
2017-08-08T10:40:53.953Z,1010.58
2017-08-08T10:42:03.490Z,1010.6
2017-08-08T10:43:12.700Z,1010.54
2017-08-08T10:44:22.235Z,1010.58
2017-08-08T10:45:31.468Z,1010.51
2017-08-08T10:46:40.782Z,1010.5
2017-08-08T10:47:49.668Z,1010.51
2017-08-08T10:48:59.208Z,1010.5
2017-08-08T10:50:09.067Z,1010.52
2017-08-08T10:51:18.919Z,1010.49
2017-08-08T10:52:28.187Z,1010.48
2017-08-08T10:53:37.726Z,1010.49
2017-08-08T10:54:47.286Z,1010.49
2017-08-08T10:55:56.850Z,1010.45
2017-08-08T10:57:06.387Z,1010.46
2017-08-08T10:58:16.504Z,1010.45
2017-08-08T10:59:26.042Z,1010.49
2017-08-08T11:00:35.262Z,1010.44
2017-08-08T11:01:44.797Z,1010.44
2017-08-08T11:02:54.012Z,1010.44
2017-08-08T11:04:03.430Z,1010.41
2017-08-08T11:05:12.640Z,1010.39
2017-08-08T11:06:22.510Z,1010.38
2017-08-08T11:07:33.015Z,1010.38
2017-08-08T11:08:42.554Z,1010.39
2017-08-08T11:09:51.778Z,1010.38
2017-08-08T11:11:01.319Z,1010.35
2017-08-08T11:12:10.530Z,1010.38
2017-08-08T11:13:20.072Z,1010.42
2017-08-08T11:14:29.612Z,1010.4
2017-08-08T11:15:38.649Z,1010.45
2017-08-08T11:16:48.510Z,1010.46
2017-08-08T11:17:58.050Z,1010.4
2017-08-08T11:19:06.941Z,1010.4
2017-08-08T11:20:16.165Z,1010.43
2017-08-08T11:21:25.582Z,1010.46
2017-08-08T11:22:34.796Z,1010.48
2017-08-08T11:23:44.338Z,1010.51
2017-08-08T11:24:53.226Z,1010.48
2017-08-08T11:26:02.118Z,1010.51
2017-08-08T11:27:12.655Z,1010.55
2017-08-08T11:28:21.878Z,1010.48
2017-08-08T11:29:31.088Z,1010.46
2017-08-08T11:30:39.992Z,1010.45
2017-08-08T11:31:49.209Z,1010.46
2017-08-08T11:32:58.898Z,1010.43
2017-08-08T11:34:08.108Z,1010.43
2017-08-08T11:35:17.650Z,1010.48
2017-08-08T11:36:26.586Z,1010.48
2017-08-08T11:37:36.450Z,1010.47
2017-08-08T11:38:45.821Z,1010.53
2017-08-08T11:39:55.357Z,1010.47
2017-08-08T11:41:04.573Z,1010.5
2017-08-08T11:42:13.487Z,1010.53
2017-08-08T11:43:23.025Z,1010.51
2017-08-08T11:44:32.040Z,1010.54
2017-08-08T11:45:41.577Z,1010.52
2017-08-08T11:46:50.789Z,1010.55
2017-08-08T11:47:59.677Z,1010.56
2017-08-08T11:49:08.568Z,1010.47
2017-08-08T11:50:17.784Z,1010.46
2017-08-08T11:51:27.320Z,1010.42
2017-08-08T11:52:36.532Z,1010.47
2017-08-08T11:53:46.392Z,1010.46
2017-08-08T11:54:56.276Z,1010.42
2017-08-08T11:56:06.764Z,1010.4
2017-08-08T11:57:16.324Z,1010.37
2017-08-08T11:58:25.908Z,1010.37
2017-08-08T11:59:35.450Z,1010.34
2017-08-08T12:00:44.987Z,1010.28
2017-08-08T12:01:55.150Z,1010.26
2017-08-08T12:03:04.739Z,1010.29
2017-08-08T12:04:14.605Z,1010.25
2017-08-08T12:05:23.850Z,1010.28
2017-08-08T12:06:32.738Z,1010.28
2017-08-08T12:07:42.646Z,1010.27
2017-08-08T12:08:51.585Z,1010.31
2017-08-08T12:10:01.407Z,1010.31
2017-08-08T12:11:11.276Z,1010.3
2017-08-08T12:12:20.489Z,1010.29
2017-08-08T12:13:30.324Z,1010.3
2017-08-08T12:14:39.551Z,1010.26
2017-08-08T12:15:49.416Z,1010.24
2017-08-08T12:16:58.626Z,1010.19
2017-08-08T12:18:08.160Z,1010.2
2017-08-08T12:19:17.798Z,1010.22
2017-08-08T12:20:27.163Z,1010.16
2017-08-08T12:21:36.087Z,1010.16
2017-08-08T12:22:45.623Z,1010.13
2017-08-08T12:23:54.839Z,1010.11
2017-08-08T12:25:04.212Z,1010.12
2017-08-08T12:26:13.101Z,1010.12
2017-08-08T12:27:22.635Z,1010.07
2017-08-08T12:28:31.851Z,1010.02
2017-08-08T12:29:41.382Z,1010.02
2017-08-08T12:30:51.139Z,1010
2017-08-08T12:32:00.674Z,1009.99
2017-08-08T12:33:09.893Z,1009.95
2017-08-08T12:34:19.431Z,1009.89
2017-08-08T12:35:29.241Z,1009.89
2017-08-08T12:36:38.885Z,1009.85
2017-08-08T12:37:48.430Z,1009.89
2017-08-08T12:38:57.329Z,1009.82
2017-08-08T12:40:06.866Z,1009.81
2017-08-08T12:41:16.753Z,1009.77
2017-08-08T12:42:25.850Z,1009.81
2017-08-08T12:43:35.093Z,1009.79
2017-08-08T12:44:44.011Z,1009.77
2017-08-08T12:45:52.943Z,1009.81
2017-08-08T12:47:01.835Z,1009.79
2017-08-08T12:48:11.298Z,1009.77
2017-08-08T12:49:20.587Z,1009.78
2017-08-08T12:50:30.335Z,1009.75
2017-08-08T12:51:39.808Z,1009.74
2017-08-08T12:52:49.049Z,1009.79
2017-08-08T12:53:59.386Z,1009.74
2017-08-08T12:55:08.942Z,1009.75
2017-08-08T12:56:18.480Z,1009.73
2017-08-08T12:57:27.368Z,1009.72
2017-08-08T12:58:36.585Z,1009.72
2017-08-08T12:59:45.975Z,1009.74
2017-08-08T13:00:54.877Z,1009.7
2017-08-08T13:02:04.649Z,1009.7
2017-08-08T13:03:13.539Z,1009.63
2017-08-08T13:04:23.099Z,1009.61
2017-08-08T13:05:32.871Z,1009.58
2017-08-08T13:06:42.408Z,1009.57
2017-08-08T13:07:52.206Z,1009.59
2017-08-08T13:09:01.109Z,1009.61
2017-08-08T13:10:11.594Z,1009.57
2017-08-08T13:11:20.706Z,1009.58
2017-08-08T13:12:30.571Z,1009.58
2017-08-08T13:13:39.490Z,1009.57
2017-08-08T13:14:49.351Z,1009.54
2017-08-08T13:15:58.894Z,1009.56
2017-08-08T13:17:08.474Z,1009.6
2017-08-08T13:18:18.015Z,1009.6
2017-08-08T13:19:26.915Z,1009.66
2017-08-08T13:20:36.771Z,1009.63
2017-08-08T13:21:46.309Z,1009.57
2017-08-08T13:22:55.844Z,1009.68
2017-08-08T13:24:05.059Z,1009.64
2017-08-08T13:25:15.243Z,1009.75
2017-08-08T13:26:24.131Z,1009.71
2017-08-08T13:27:34.012Z,1009.81
2017-08-08T13:28:43.274Z,1009.85
2017-08-08T13:29:53.475Z,1009.9
2017-08-08T13:31:03.014Z,1009.93
2017-08-08T13:32:12.553Z,1009.94
2017-08-08T13:33:22.096Z,1009.96
2017-08-08T13:34:31.377Z,1010.01
2017-08-08T13:35:40.601Z,1009.99
2017-08-08T13:36:51.136Z,1009.97
2017-08-08T13:38:01.008Z,1009.94
2017-08-08T13:39:10.549Z,1009.95
2017-08-08T13:40:20.220Z,1009.93
2017-08-08T13:41:29.441Z,1009.99
2017-08-08T13:42:38.659Z,1009.94
2017-08-08T13:43:48.524Z,1009.96
2017-08-08T13:44:58.061Z,1009.98
2017-08-08T13:46:07.990Z,1009.98
2017-08-08T13:47:17.550Z,1009.95
2017-08-08T13:48:27.082Z,1010
2017-08-08T13:49:36.941Z,1009.97
2017-08-08T13:50:46.818Z,1009.96
2017-08-08T13:51:56.417Z,1010
2017-08-08T13:53:05.635Z,1010.02
2017-08-08T13:54:14.853Z,1009.97
2017-08-08T13:55:24.711Z,1009.96
2017-08-08T13:56:34.251Z,1009.93
2017-08-08T13:57:43.979Z,1009.9
2017-08-08T13:58:53.535Z,1009.89
2017-08-08T14:00:03.399Z,1009.9
2017-08-08T14:01:13.587Z,1009.88
2017-08-08T14:02:23.469Z,1009.9
2017-08-08T14:03:33.480Z,1009.86